createdAt,value
2019-05-17T00:01:18.808Z,7.47
2019-05-17T00:03:46.969Z,8.00
2019-05-17T00:06:12.297Z,8.00
2019-05-17T00:08:38.545Z,7.63
2019-05-17T00:11:06.690Z,6.30
2019-05-17T00:13:32.303Z,7.70
2019-05-17T00:15:58.096Z,6.87
2019-05-17T00:18:23.877Z,7.60
2019-05-17T00:20:49.777Z,6.57
2019-05-17T00:23:17.358Z,5.63
2019-05-17T00:25:43.276Z,4.33
2019-05-17T00:28:09.056Z,4.67
2019-05-17T00:30:36.977Z,4.27
2019-05-17T00:33:02.544Z,4.67
2019-05-17T00:35:28.343Z,6.10
2019-05-17T00:37:54.138Z,3.43
2019-05-17T00:40:19.949Z,3.83
2019-05-17T00:42:46.671Z,2.80
2019-05-17T00:45:12.840Z,3.87
2019-05-17T00:47:38.631Z,4.27
2019-05-17T00:50:07.399Z,5.47
2019-05-17T00:52:33.112Z,3.77
2019-05-17T00:54:58.924Z,3.47
2019-05-17T00:57:27.191Z,3.90
2019-05-17T00:59:52.438Z,4.20
2019-05-17T01:02:18.219Z,3.57
2019-05-17T01:04:44.010Z,5.60
2019-05-17T01:07:09.810Z,6.77
2019-05-17T01:09:36.682Z,4.90
2019-05-17T01:12:02.623Z,5.70
2019-05-17T01:14:28.410Z,7.17
2019-05-17T01:16:56.362Z,5.97
2019-05-17T01:19:21.899Z,6.17
2019-05-17T01:21:47.711Z,4.70
2019-05-17T01:24:13.487Z,8.67
2019-05-17T01:26:39.285Z,7.57
2019-05-17T01:29:06.703Z,5.20
2019-05-17T01:31:32.685Z,9.10
2019-05-17T01:33:58.471Z,7.37
2019-05-17T01:36:26.230Z,8.07
2019-05-17T01:38:51.961Z,9.57
2019-05-17T01:41:17.769Z,14.50
2019-05-17T01:43:43.550Z,11.57
2019-05-17T01:46:09.347Z,11.07
2019-05-17T01:48:36.539Z,15.30
2019-05-17T01:51:02.539Z,13.47
2019-05-17T01:53:28.340Z,13.27
2019-05-17T01:55:54.118Z,19.30
2019-05-17T01:58:19.927Z,18.30
2019-05-17T02:00:46.509Z,19.40
2019-05-17T02:03:12.519Z,18.40
2019-05-17T02:05:38.302Z,18.47
2019-05-17T02:08:06.621Z,18.70
2019-05-17T02:10:32.113Z,20.50
2019-05-17T02:12:57.917Z,20.87
2019-05-17T02:15:23.897Z,17.47
2019-05-17T02:17:49.698Z,20.30
2019-05-17T02:20:17.057Z,16.87
2019-05-17T02:22:43.096Z,20.83
2019-05-17T02:25:09.880Z,22.00
2019-05-17T02:27:41.058Z,22.17
2019-05-17T02:30:06.697Z,21.73
2019-05-17T02:32:33.685Z,21.30
2019-05-17T02:35:03.017Z,21.10
2019-05-17T02:37:27.483Z,17.87
2019-05-17T02:40:02.390Z,17.20
2019-05-17T02:42:22.407Z,16.83
2019-05-17T02:44:48.363Z,19.37
2019-05-17T02:47:14.159Z,15.00
2019-05-17T02:49:42.490Z,19.07
2019-05-17T02:52:07.728Z,16.20
2019-05-17T02:54:33.546Z,13.00
2019-05-17T02:56:59.322Z,18.20
2019-05-17T02:59:25.122Z,16.13
2019-05-17T03:01:52.714Z,15.23
2019-05-17T03:04:18.622Z,13.50
2019-05-17T03:06:44.417Z,15.00
2019-05-17T03:09:12.507Z,12.47
2019-05-17T03:11:37.925Z,16.83
2019-05-17T03:14:04.248Z,15.27
2019-05-17T03:16:33.562Z,19.37
2019-05-17T03:18:57.826Z,14.13
2019-05-17T03:21:23.608Z,15.73
2019-05-17T03:23:49.432Z,17.87
2019-05-17T03:26:15.221Z,13.13
2019-05-17T03:28:42.674Z,16.00
2019-05-17T03:31:09.541Z,19.43
2019-05-17T03:33:36.860Z,17.10
2019-05-17T03:36:06.089Z,14.37
2019-05-17T03:38:32.543Z,18.43
2019-05-17T03:41:13.473Z,23.07
2019-05-17T03:43:26.108Z,22.97
2019-05-17T03:45:53.345Z,20.13
2019-05-17T03:48:22.001Z,23.47
2019-05-17T03:50:47.099Z,26.37
2019-05-17T03:53:13.310Z,29.10
2019-05-17T03:55:39.196Z,27.53
2019-05-17T03:58:04.977Z,36.70
2019-05-17T04:00:30.784Z,30.30
2019-05-17T04:02:56.576Z,28.40
2019-05-17T04:05:22.840Z,29.97
2019-05-17T04:07:48.701Z,28.60
2019-05-17T04:10:15.478Z,41.70
2019-05-17T04:12:44.155Z,32.13
2019-05-17T04:15:13.374Z,29.90
2019-05-17T04:17:39.276Z,47.80
2019-05-17T04:20:05.774Z,35.30
2019-05-17T04:22:33.143Z,32.90
2019-05-17T04:25:02.787Z,31.40
2019-05-17T04:27:26.749Z,32.40
2019-05-17T04:29:53.312Z,26.80
2019-05-17T04:32:19.340Z,30.00
2019-05-17T04:34:45.118Z,26.17
2019-05-17T04:37:13.029Z,28.23
2019-05-17T04:39:38.602Z,28.70
2019-05-17T04:42:04.507Z,32.40
2019-05-17T04:44:32.240Z,26.00
2019-05-17T04:46:58.107Z,23.97
2019-05-17T04:49:24.442Z,25.47
2019-05-17T04:51:52.571Z,29.37
2019-05-17T04:54:18.068Z,23.83
2019-05-17T04:56:43.876Z,21.03
2019-05-17T04:59:09.654Z,22.83
2019-05-17T05:01:35.461Z,22.37
2019-05-17T05:04:03.669Z,18.23
2019-05-17T05:06:28.941Z,20.53
2019-05-17T05:08:54.718Z,20.73
2019-05-17T05:11:23.105Z,21.83
2019-05-17T05:13:48.214Z,24.30
2019-05-17T05:16:14.010Z,26.50
2019-05-17T05:18:42.123Z,24.63
2019-05-17T05:21:07.699Z,22.47
2019-05-17T05:23:33.486Z,22.37
2019-05-17T05:25:59.289Z,24.13
2019-05-17T05:28:25.074Z,25.53
2019-05-17T05:30:52.731Z,23.47
2019-05-17T05:33:18.572Z,24.33
2019-05-17T05:35:44.348Z,26.50
2019-05-17T05:38:12.653Z,24.20
2019-05-17T05:40:38.121Z,21.80
2019-05-17T05:43:03.922Z,24.07
2019-05-17T05:45:31.935Z,25.80
2019-05-17T05:47:57.408Z,26.17
2019-05-17T05:50:23.256Z,25.70
2019-05-17T05:52:49.050Z,20.90
2019-05-17T05:55:15.434Z,25.83
2019-05-17T05:57:42.032Z,25.70
2019-05-17T06:00:12.484Z,25.07
2019-05-17T06:02:37.832Z,24.50
2019-05-17T06:05:05.209Z,22.03
2019-05-17T06:07:32.183Z,23.13
2019-05-17T06:09:58.126Z,21.30
2019-05-17T06:12:28.046Z,22.30
2019-05-17T06:14:52.385Z,24.47
2019-05-17T06:17:18.220Z,19.60
2019-05-17T06:19:44.008Z,21.30
2019-05-17T06:22:11.864Z,19.87
2019-05-17T06:24:37.490Z,18.73
2019-05-17T06:27:03.279Z,20.17
2019-05-17T06:29:29.066Z,23.67
2019-05-17T06:31:54.848Z,21.07
2019-05-17T06:34:22.365Z,23.57
2019-05-17T06:36:48.230Z,22.20
2019-05-17T06:39:14.030Z,20.30
2019-05-17T06:41:41.970Z,26.37
2019-05-17T06:44:07.524Z,23.57
2019-05-17T06:46:33.310Z,22.77
2019-05-17T06:48:59.122Z,23.93
2019-05-17T06:51:24.904Z,27.50
2019-05-17T06:53:52.375Z,25.03
2019-05-17T06:56:18.285Z,22.43
2019-05-17T06:58:44.083Z,24.53
2019-05-17T07:01:09.871Z,23.67
2019-05-17T07:03:35.669Z,25.33
2019-05-17T07:06:03.439Z,22.03
2019-05-17T07:08:29.607Z,20.60
2019-05-17T07:10:55.458Z,20.63
2019-05-17T07:13:21.240Z,19.37
2019-05-17T07:15:47.981Z,24.50
2019-05-17T07:18:14.731Z,20.50
2019-05-17T07:20:40.540Z,19.53
2019-05-17T07:23:06.308Z,21.47
2019-05-17T07:25:32.108Z,18.63
2019-05-17T07:28:00.268Z,18.50
2019-05-17T07:30:25.686Z,18.23
2019-05-17T07:32:51.478Z,16.33
2019-05-17T07:35:19.598Z,14.93
2019-05-17T07:37:44.955Z,15.17
2019-05-17T07:40:11.260Z,14.97
2019-05-17T07:42:39.462Z,14.03
2019-05-17T07:45:10.043Z,14.30
2019-05-17T07:47:35.772Z,14.53
2019-05-17T07:50:02.967Z,13.47
2019-05-17T07:52:29.948Z,13.27
2019-05-17T07:54:55.897Z,12.93
2019-05-17T07:57:21.686Z,12.97
2019-05-17T07:59:47.490Z,11.97
2019-05-17T08:02:13.266Z,11.83
2019-05-17T08:04:40.663Z,12.00
2019-05-17T08:07:06.743Z,11.37
2019-05-17T08:09:32.542Z,10.87
2019-05-17T08:11:59.744Z,11.87
2019-05-17T08:14:30.238Z,11.77
2019-05-17T08:16:53.510Z,11.60
2019-05-17T08:19:20.494Z,11.83
2019-05-17T08:21:46.387Z,13.97
2019-05-17T08:24:12.170Z,12.30
2019-05-17T08:26:40.247Z,11.97
2019-05-17T08:29:05.644Z,13.67
2019-05-17T08:31:31.436Z,11.77
2019-05-17T08:33:57.230Z,13.90
2019-05-17T08:36:23.034Z,13.90
2019-05-17T08:38:50.175Z,13.47
2019-05-17T08:41:16.128Z,13.27
2019-05-17T08:43:46.485Z,13.40
2019-05-17T08:46:10.627Z,11.70
2019-05-17T08:48:36.476Z,13.37
2019-05-17T08:51:02.273Z,13.20
2019-05-17T08:53:30.352Z,11.90
2019-05-17T08:55:56.042Z,11.83
2019-05-17T08:58:21.841Z,11.23
2019-05-17T09:00:47.615Z,10.73
2019-05-17T09:03:13.400Z,11.40
2019-05-17T09:05:41.586Z,11.07
2019-05-17T09:08:06.879Z,10.63
2019-05-17T09:10:32.677Z,10.00
2019-05-17T09:12:59.768Z,11.40
2019-05-17T09:15:25.670Z,11.30
2019-05-17T09:17:51.469Z,11.17
2019-05-17T09:20:17.257Z,12.00
2019-05-17T09:22:43.055Z,10.93
2019-05-17T09:25:12.257Z,9.80
2019-05-17T09:27:36.743Z,10.20
2019-05-17T09:30:04.033Z,9.97
2019-05-17T09:32:29.873Z,9.60
2019-05-17T09:34:55.613Z,9.20
2019-05-17T09:37:22.629Z,8.77
2019-05-17T09:39:49.261Z,8.50
2019-05-17T09:42:15.206Z,9.03
2019-05-17T09:44:40.994Z,9.77
2019-05-17T09:47:06.772Z,9.43
2019-05-17T09:49:32.566Z,10.23
2019-05-17T09:52:00.155Z,10.30
2019-05-17T09:54:41.139Z,9.87
2019-05-17T09:56:53.754Z,8.63
2019-05-17T09:59:20.406Z,9.00
2019-05-17T10:01:46.235Z,8.93
2019-05-17T10:04:13.461Z,8.70
2019-05-17T10:06:40.228Z,9.00
2019-05-17T10:09:06.046Z,9.20
2019-05-17T10:11:31.848Z,9.37
2019-05-17T10:13:59.016Z,8.57
2019-05-17T10:16:25.334Z,7.23
2019-05-17T10:18:51.129Z,8.47
2019-05-17T10:21:16.909Z,9.07
2019-05-17T10:23:42.706Z,8.30
2019-05-17T10:26:10.240Z,9.33
2019-05-17T10:28:36.184Z,8.40
2019-05-17T10:31:02.523Z,8.10
2019-05-17T10:33:29.440Z,7.40
2019-05-17T10:35:55.358Z,7.20
2019-05-17T10:38:21.138Z,7.00
2019-05-17T10:40:47.130Z,7.20
2019-05-17T10:43:12.921Z,6.80
2019-05-17T10:45:40.049Z,6.13
2019-05-17T10:48:06.095Z,6.73
2019-05-17T10:50:31.910Z,6.87
2019-05-17T10:53:00.215Z,7.40
2019-05-17T10:55:25.376Z,6.73
2019-05-17T10:57:51.159Z,6.53
2019-05-17T11:00:19.525Z,7.40
2019-05-17T11:02:44.935Z,6.57
2019-05-17T11:05:10.828Z,6.63
2019-05-17T11:07:36.649Z,6.73
2019-05-17T11:10:03.757Z,6.70
2019-05-17T11:12:29.542Z,5.30
2019-05-17T11:15:09.751Z,6.30
2019-05-17T11:17:23.016Z,6.07
2019-05-17T11:19:48.871Z,5.60
2019-05-17T11:22:14.914Z,6.03
2019-05-17T11:24:40.679Z,6.27
2019-05-17T11:27:06.470Z,5.73
2019-05-17T11:29:32.364Z,6.00
2019-05-17T11:31:58.173Z,5.73
2019-05-17T11:34:25.605Z,6.47
2019-05-17T11:36:51.546Z,6.40
2019-05-17T11:39:17.337Z,6.90
2019-05-17T11:41:43.130Z,6.37
2019-05-17T11:44:08.910Z,5.90
2019-05-17T11:46:36.509Z,6.93
2019-05-17T11:49:02.485Z,7.70
2019-05-17T11:51:28.275Z,6.83
2019-05-17T11:53:54.055Z,7.07
2019-05-17T11:56:19.849Z,6.90
2019-05-17T11:58:45.636Z,7.00
2019-05-17T12:01:11.431Z,7.67
2019-05-17T12:03:37.210Z,6.87
2019-05-17T12:06:03.202Z,6.43
2019-05-17T12:08:28.980Z,7.30
2019-05-17T12:10:54.879Z,7.10
2019-05-17T12:13:20.772Z,6.47
2019-05-17T12:15:46.549Z,6.43
2019-05-17T12:18:12.342Z,6.47
2019-05-17T12:20:38.127Z,7.37
2019-05-17T12:23:03.920Z,6.37
2019-05-17T12:25:29.707Z,7.00
2019-05-17T12:27:55.502Z,6.93
2019-05-17T12:30:21.384Z,6.43
2019-05-17T12:32:47.180Z,6.90
2019-05-17T12:35:12.952Z,6.37
2019-05-17T12:37:42.136Z,6.53
2019-05-17T12:40:06.963Z,7.57
2019-05-17T12:42:32.821Z,7.30
2019-05-17T12:44:58.606Z,6.53
2019-05-17T12:47:24.400Z,8.33
2019-05-17T12:49:50.175Z,8.10
2019-05-17T12:52:15.965Z,7.50
2019-05-17T12:54:41.744Z,7.63
2019-05-17T12:57:07.535Z,7.40
2019-05-17T12:59:33.324Z,7.93
2019-05-17T13:01:59.130Z,7.37
2019-05-17T13:04:24.911Z,7.30
2019-05-17T13:06:50.698Z,7.33
2019-05-17T13:09:16.491Z,7.70
2019-05-17T13:11:42.298Z,7.37
2019-05-17T13:14:08.084Z,7.40
2019-05-17T13:16:33.861Z,6.27
2019-05-17T13:18:59.929Z,7.70
2019-05-17T13:21:25.690Z,7.13
2019-05-17T13:23:51.480Z,6.80
2019-05-17T13:26:17.263Z,7.60
2019-05-17T13:28:43.053Z,7.80
2019-05-17T13:31:08.832Z,7.80
2019-05-17T13:33:34.628Z,7.73
2019-05-17T13:36:00.413Z,8.63
2019-05-17T13:38:26.208Z,8.57
2019-05-17T13:40:51.986Z,7.53
2019-05-17T13:43:17.789Z,7.73
2019-05-17T13:45:44.587Z,7.53
2019-05-17T13:48:10.657Z,7.17
2019-05-17T13:50:36.445Z,8.27
2019-05-17T13:53:02.232Z,8.60
2019-05-17T13:55:28.031Z,7.90
2019-05-17T13:57:53.801Z,8.07
2019-05-17T14:00:19.705Z,7.77
2019-05-17T14:02:45.470Z,7.47
2019-05-17T14:05:11.571Z,8.00
2019-05-17T14:07:37.354Z,9.20
2019-05-17T14:10:06.341Z,7.93
2019-05-17T14:12:32.114Z,7.80
2019-05-17T14:14:57.917Z,6.80
2019-05-17T14:17:23.693Z,7.43
2019-05-17T14:19:49.482Z,7.77
2019-05-17T14:22:15.297Z,7.73
2019-05-17T14:24:41.131Z,9.77
2019-05-17T14:27:07.009Z,9.83
2019-05-17T14:29:32.829Z,10.77
2019-05-17T14:31:58.588Z,11.33
2019-05-17T14:34:24.389Z,12.30
2019-05-17T14:36:50.168Z,11.83
2019-05-17T14:39:15.968Z,11.47
2019-05-17T14:41:41.751Z,11.20
2019-05-17T14:44:07.538Z,10.77
2019-05-17T14:46:33.339Z,11.53
2019-05-17T14:48:59.136Z,12.33
2019-05-17T14:51:25.024Z,11.93
2019-05-17T14:53:51.058Z,12.97
2019-05-17T14:56:16.952Z,13.07
2019-05-17T14:58:42.738Z,12.80
2019-05-17T15:01:08.528Z,13.80
2019-05-17T15:03:34.313Z,13.40
2019-05-17T15:06:00.134Z,13.73
2019-05-17T15:08:25.974Z,13.50
2019-05-17T15:10:51.779Z,14.07
2019-05-17T15:13:17.570Z,13.00
2019-05-17T15:15:43.364Z,14.57
2019-05-17T15:18:09.936Z,13.07
2019-05-17T15:20:35.947Z,12.67
2019-05-17T15:23:02.222Z,13.47
2019-05-17T15:25:28.015Z,13.60
2019-05-17T15:27:54.716Z,15.73
2019-05-17T15:30:22.123Z,14.90
2019-05-17T15:32:49.512Z,14.13
2019-05-17T15:35:15.813Z,13.77
2019-05-17T15:37:42.584Z,14.10
2019-05-17T15:40:09.586Z,13.20
2019-05-17T15:42:44.011Z,13.07
2019-05-17T15:45:05.596Z,13.10
2019-05-17T15:47:31.381Z,14.00
2019-05-17T15:49:57.179Z,13.27
2019-05-17T15:52:23.381Z,17.03
2019-05-17T15:54:49.173Z,16.70
2019-05-17T15:57:15.039Z,14.53
2019-05-17T15:59:40.827Z,12.97
2019-05-17T16:02:06.650Z,13.30
2019-05-17T16:04:32.424Z,13.27
2019-05-17T16:06:58.222Z,12.87
2019-05-17T16:09:24.035Z,13.37
2019-05-17T16:11:49.859Z,13.07
2019-05-17T16:14:15.660Z,11.87
2019-05-17T16:16:41.445Z,12.33
2019-05-17T16:19:07.244Z,11.70
2019-05-17T16:21:33.027Z,11.20
2019-05-17T16:23:58.834Z,11.97
2019-05-17T16:26:24.621Z,12.23
2019-05-17T16:28:50.524Z,11.23
2019-05-17T16:31:16.301Z,11.03
2019-05-17T16:33:42.098Z,11.07
2019-05-17T16:36:07.889Z,11.37
2019-05-17T16:38:33.681Z,10.47
2019-05-17T16:40:59.466Z,12.03
2019-05-17T16:43:25.256Z,12.30
2019-05-17T16:45:51.044Z,11.53
2019-05-17T16:48:16.849Z,13.40
2019-05-17T16:50:43.610Z,12.03
2019-05-17T16:53:09.417Z,11.40
2019-05-17T16:55:35.235Z,13.80
2019-05-17T16:58:01.032Z,14.87
2019-05-17T17:00:30.031Z,11.93
2019-05-17T17:02:55.838Z,14.13
2019-05-17T17:05:21.638Z,12.83
2019-05-17T17:07:47.441Z,15.10
2019-05-17T17:10:13.328Z,13.43
2019-05-17T17:12:39.142Z,11.97
2019-05-17T17:15:05.041Z,11.97
2019-05-17T17:17:30.834Z,13.33
2019-05-17T17:19:56.644Z,14.13
2019-05-17T17:22:22.463Z,13.77
2019-05-17T17:24:48.239Z,14.40
2019-05-17T17:27:14.037Z,12.77
2019-05-17T17:29:40.217Z,12.47
2019-05-17T17:32:19.422Z,14.17
2019-05-17T17:34:33.749Z,13.97
2019-05-17T17:36:59.538Z,11.63
2019-05-17T17:39:25.336Z,13.87
2019-05-17T17:41:51.132Z,12.00
2019-05-17T17:44:16.941Z,13.93
2019-05-17T17:46:42.740Z,12.63
2019-05-17T17:49:08.556Z,13.43
2019-05-17T17:51:34.384Z,11.73
2019-05-17T17:54:00.163Z,13.27
2019-05-17T17:56:25.993Z,11.63
2019-05-17T17:58:51.782Z,11.13
2019-05-17T18:01:17.577Z,13.10
2019-05-17T18:03:43.377Z,12.13
2019-05-17T18:06:09.194Z,10.90
2019-05-17T18:08:34.968Z,11.13
2019-05-17T18:11:00.782Z,12.43
2019-05-17T18:13:26.574Z,13.93
2019-05-17T18:15:52.376Z,13.03
2019-05-17T18:18:18.159Z,11.73
2019-05-17T18:20:43.965Z,10.87
2019-05-17T18:23:09.842Z,12.20
2019-05-17T18:25:35.851Z,13.00
2019-05-17T18:28:01.633Z,12.70
2019-05-17T18:30:27.536Z,12.47
2019-05-17T18:32:53.441Z,11.60
2019-05-17T18:35:19.234Z,10.93
2019-05-17T18:37:45.028Z,13.00
2019-05-17T18:40:10.967Z,11.30
2019-05-17T18:42:36.753Z,11.70
2019-05-17T18:45:04.751Z,11.90
2019-05-17T18:47:30.554Z,10.27
2019-05-17T18:49:56.344Z,10.70
2019-05-17T18:52:22.151Z,10.77
2019-05-17T18:54:47.931Z,11.43
2019-05-17T18:57:13.716Z,10.10
2019-05-17T18:59:39.494Z,11.13
2019-05-17T19:02:05.398Z,11.30
2019-05-17T19:04:31.191Z,10.83
2019-05-17T19:06:57.061Z,10.83
2019-05-17T19:09:22.837Z,9.60
2019-05-17T19:11:48.653Z,11.67
2019-05-17T19:14:14.442Z,10.50
2019-05-17T19:16:40.246Z,10.40
2019-05-17T19:19:06.026Z,10.60
2019-05-17T19:21:31.826Z,10.33
2019-05-17T19:23:57.618Z,10.27
2019-05-17T19:26:23.409Z,10.40
2019-05-17T19:28:49.198Z,11.43
2019-05-17T19:31:14.995Z,10.60
2019-05-17T19:33:40.787Z,10.43
2019-05-17T19:36:06.606Z,11.73
2019-05-17T19:38:32.414Z,10.80
2019-05-17T19:40:58.210Z,11.10
2019-05-17T19:43:24.014Z,11.23
2019-05-17T19:45:49.797Z,11.13
2019-05-17T19:48:15.606Z,11.27
2019-05-17T19:50:41.381Z,11.50
2019-05-17T19:53:07.172Z,11.63
2019-05-17T19:55:33.462Z,12.10
2019-05-17T19:57:59.360Z,11.63
2019-05-17T20:00:25.192Z,11.67
2019-05-17T20:02:50.952Z,12.13
2019-05-17T20:05:16.838Z,12.53
2019-05-17T20:07:42.654Z,12.80
2019-05-17T20:10:08.938Z,12.20
2019-05-17T20:12:34.853Z,12.27
2019-05-17T20:15:16.175Z,13.07
2019-05-17T20:17:28.333Z,12.47
2019-05-17T20:19:54.118Z,13.40
2019-05-17T20:22:19.923Z,14.97
2019-05-17T20:24:45.705Z,14.43
2019-05-17T20:27:11.504Z,14.73
2019-05-17T20:29:37.298Z,14.93
2019-05-17T20:32:03.185Z,15.27
2019-05-17T20:34:28.994Z,15.97
2019-05-17T20:36:54.789Z,17.10
2019-05-17T20:39:20.590Z,16.93
2019-05-17T20:41:46.382Z,17.23
2019-05-17T20:44:12.185Z,16.90
2019-05-17T20:46:37.971Z,17.77
2019-05-17T20:49:03.777Z,18.63
2019-05-17T20:51:29.571Z,18.33
2019-05-17T20:53:55.370Z,18.10
2019-05-17T20:56:32.365Z,20.17
2019-05-17T20:58:48.868Z,19.00
2019-05-17T21:01:14.668Z,19.93
2019-05-17T21:03:40.457Z,19.43
2019-05-17T21:06:06.245Z,20.43
2019-05-17T21:08:45.133Z,19.90
2019-05-17T21:10:59.749Z,20.60
2019-05-17T21:13:25.580Z,22.17
2019-05-17T21:15:51.355Z,21.50
2019-05-17T21:18:17.150Z,21.17
2019-05-17T21:20:42.941Z,21.60
2019-05-17T21:23:08.729Z,23.03
2019-05-17T21:25:34.528Z,23.43
2019-05-17T21:28:00.419Z,24.60
2019-05-17T21:30:26.225Z,24.70
2019-05-17T21:32:52.019Z,24.33
2019-05-17T21:35:17.811Z,24.67
2019-05-17T21:37:43.594Z,25.37
2019-05-17T21:40:09.798Z,24.07
2019-05-17T21:42:35.603Z,25.80
2019-05-17T21:45:03.424Z,27.03
2019-05-17T21:47:29.193Z,27.97
2019-05-17T21:49:54.992Z,27.97
2019-05-17T21:52:20.773Z,29.40
2019-05-17T21:54:46.578Z,27.33
2019-05-17T21:57:12.398Z,28.00
2019-05-17T21:59:38.164Z,27.97
2019-05-17T22:02:04.250Z,26.80
2019-05-17T22:04:30.058Z,29.57
2019-05-17T22:06:55.853Z,29.27
2019-05-17T22:09:21.763Z,28.90
2019-05-17T22:11:49.460Z,28.97
2019-05-17T22:14:15.250Z,28.37
2019-05-17T22:16:41.048Z,27.43
2019-05-17T22:19:06.828Z,27.10
2019-05-17T22:21:32.961Z,28.67
2019-05-17T22:23:58.760Z,27.40
2019-05-17T22:26:24.559Z,28.07
2019-05-17T22:28:50.355Z,27.40
2019-05-17T22:31:16.148Z,29.00
2019-05-17T22:33:42.242Z,28.17
2019-05-17T22:36:08.142Z,27.80
2019-05-17T22:38:33.973Z,27.43
2019-05-17T22:40:59.769Z,29.07
2019-05-17T22:43:25.559Z,33.07
2019-05-17T22:45:51.366Z,29.57
2019-05-17T22:48:17.144Z,31.53
2019-05-17T22:50:42.939Z,34.77
2019-05-17T22:53:08.722Z,32.17
2019-05-17T22:55:34.508Z,31.13
2019-05-17T22:58:00.301Z,33.03
2019-05-17T23:00:26.413Z,29.90
2019-05-17T23:02:52.424Z,34.43
2019-05-17T23:05:25.702Z,30.13
2019-05-17T23:07:46.308Z,29.97
2019-05-17T23:10:12.341Z,33.37
2019-05-17T23:12:38.151Z,32.53
2019-05-17T23:15:06.333Z,29.53
2019-05-17T23:17:32.126Z,29.07
2019-05-17T23:19:58.084Z,28.33
2019-05-17T23:22:23.892Z,28.37
2019-05-17T23:24:49.674Z,30.33
2019-05-17T23:27:15.511Z,30.80
2019-05-17T23:29:41.615Z,31.37
2019-05-17T23:32:07.620Z,28.63
2019-05-17T23:34:33.398Z,28.27
2019-05-17T23:36:59.200Z,25.90
2019-05-17T23:39:25.175Z,27.63
2019-05-17T23:41:51.134Z,33.70
2019-05-17T23:44:16.957Z,28.10
2019-05-17T23:46:42.700Z,29.57
2019-05-17T23:49:08.506Z,29.77
2019-05-17T23:51:34.371Z,28.73
2019-05-17T23:54:00.159Z,30.77
2019-05-17T23:56:25.950Z,33.97
2019-05-17T23:58:51.750Z,30.20
